createdAt,value
2024-04-06T00:01:04.929Z,52.25
2024-04-06T00:03:53.543Z,52.29
2024-04-06T00:06:20.888Z,52.28
2024-04-06T00:08:50.174Z,52.31
2024-04-06T00:11:17.876Z,52.31
2024-04-06T00:13:45.756Z,52.40
2024-04-06T00:16:12.616Z,52.38
2024-04-06T00:18:40.754Z,52.43
2024-04-06T00:21:07.568Z,52.48
2024-04-06T00:23:34.620Z,52.52
2024-04-06T00:26:01.517Z,52.67
2024-04-06T00:28:28.507Z,52.64
2024-04-06T00:30:55.715Z,52.66
2024-04-06T00:33:22.699Z,52.80
2024-04-06T00:35:49.743Z,52.86
2024-04-06T00:38:16.681Z,52.97
2024-04-06T00:40:43.685Z,53.04
2024-04-06T00:43:10.813Z,53.17
2024-04-06T00:45:37.837Z,53.36
2024-04-06T00:48:05.624Z,53.42
2024-04-06T00:50:34.473Z,53.55
2024-04-06T00:53:01.628Z,53.74
2024-04-06T00:55:29.179Z,53.77
2024-04-06T00:57:56.118Z,53.83
2024-04-06T01:00:23.434Z,53.95
2024-04-06T01:02:51.205Z,53.94
2024-04-06T01:05:18.067Z,54.08
2024-04-06T01:07:46.431Z,54.16
2024-04-06T01:10:13.528Z,54.15
2024-04-06T01:12:40.389Z,54.17
2024-04-06T01:15:07.526Z,54.25
2024-04-06T01:17:34.553Z,54.30
2024-04-06T01:20:01.499Z,54.35
2024-04-06T01:22:28.688Z,54.28
2024-04-06T01:24:58.410Z,54.34
2024-04-06T01:27:25.726Z,54.29
2024-04-06T01:29:52.682Z,54.38
2024-04-06T01:32:19.699Z,54.28
2024-04-06T01:34:46.564Z,54.29
2024-04-06T01:37:16.531Z,54.30
2024-04-06T01:39:43.478Z,54.30
2024-04-06T01:42:10.408Z,54.19
2024-04-06T01:44:37.546Z,54.31
2024-04-06T01:47:04.633Z,54.35
2024-04-06T01:49:32.092Z,54.27
2024-04-06T01:51:59.234Z,54.17
2024-04-06T01:54:26.384Z,54.19
2024-04-06T01:56:53.528Z,54.19
2024-04-06T01:59:20.507Z,54.31
2024-04-06T02:01:48.017Z,54.11
2024-04-06T02:04:15.008Z,54.12
2024-04-06T02:06:42.061Z,54.14
2024-04-06T02:09:08.909Z,54.20
2024-04-06T02:11:35.759Z,54.28
2024-04-06T02:14:02.739Z,54.33
2024-04-06T02:16:29.634Z,54.39
2024-04-06T02:18:56.553Z,54.43
2024-04-06T02:21:23.552Z,54.47
2024-04-06T02:23:50.445Z,54.58
2024-04-06T02:26:17.308Z,54.64
2024-04-06T02:28:44.185Z,54.64
2024-04-06T02:31:11.315Z,54.76
2024-04-06T02:33:38.530Z,54.82
2024-04-06T02:36:05.810Z,54.86
2024-04-06T02:38:32.697Z,54.94
2024-04-06T02:40:59.900Z,54.92
2024-04-06T02:43:26.767Z,55.04
2024-04-06T02:45:53.769Z,55.09
2024-04-06T02:48:20.721Z,55.68
2024-04-06T02:50:47.909Z,55.76
2024-04-06T02:53:14.775Z,56.47
2024-04-06T02:55:42.011Z,56.19
2024-04-06T02:58:09.050Z,56.31
2024-04-06T03:00:38.251Z,56.41
2024-04-06T03:03:05.220Z,56.47
2024-04-06T03:05:32.261Z,56.48
2024-04-06T03:07:59.252Z,56.53
2024-04-06T03:10:26.386Z,56.62
2024-04-06T03:12:53.275Z,56.58
2024-04-06T03:15:20.375Z,56.47
2024-04-06T03:17:47.505Z,56.56
2024-04-06T03:20:14.695Z,56.48
2024-04-06T03:22:43.721Z,56.53
2024-04-06T03:25:10.847Z,56.45
2024-04-06T03:27:37.914Z,56.57
2024-04-06T03:30:06.077Z,56.52
2024-04-06T03:32:33.240Z,56.56
2024-04-06T03:35:00.191Z,56.69
2024-04-06T03:37:27.048Z,56.72
2024-04-06T03:39:54.349Z,56.94
2024-04-06T03:42:21.536Z,57.05
2024-04-06T03:44:48.467Z,57.25
2024-04-06T03:47:15.845Z,57.41
2024-04-06T03:49:43.583Z,57.53
2024-04-06T03:52:11.014Z,57.73
2024-04-06T03:54:37.870Z,57.72
2024-04-06T03:57:05.089Z,57.71
2024-04-06T03:59:32.774Z,57.81
2024-04-06T04:02:00.029Z,57.81
2024-04-06T04:04:26.843Z,57.76
2024-04-06T04:06:55.141Z,57.74
2024-04-06T04:09:22.442Z,57.74
2024-04-06T04:11:49.376Z,57.65
2024-04-06T04:14:16.818Z,57.42
2024-04-06T04:16:43.981Z,57.40
2024-04-06T04:19:11.842Z,57.25
2024-04-06T04:21:39.117Z,57.10
2024-04-06T04:24:06.368Z,57.06
2024-04-06T04:26:33.884Z,56.88
2024-04-06T04:29:01.082Z,56.76
2024-04-06T04:31:28.447Z,56.70
2024-04-06T04:33:55.629Z,56.62
2024-04-06T04:36:22.604Z,56.60
2024-04-06T04:38:50.494Z,56.64
2024-04-06T04:41:17.285Z,56.70
2024-04-06T04:43:44.319Z,56.65
2024-04-06T04:46:12.031Z,56.61
2024-04-06T04:48:57.055Z,56.65
2024-04-06T04:51:24.603Z,56.68
2024-04-06T04:53:51.534Z,56.65
2024-04-06T04:56:19.766Z,56.65
2024-04-06T04:58:48.026Z,56.61
2024-04-06T05:01:18.817Z,56.69
2024-04-06T05:03:45.643Z,56.70
2024-04-06T05:06:12.540Z,56.72
2024-04-06T05:08:40.136Z,56.71
2024-04-06T05:11:07.646Z,56.76
2024-04-06T05:13:35.437Z,56.76
2024-04-06T05:16:02.713Z,56.86
2024-04-06T05:18:29.494Z,56.80
2024-04-06T05:20:59.034Z,57.04
2024-04-06T05:23:28.139Z,57.00
2024-04-06T05:25:55.995Z,57.07
2024-04-06T05:28:28.027Z,57.17
2024-04-06T05:30:55.632Z,57.30
2024-04-06T05:33:23.169Z,57.28
2024-04-06T05:35:51.671Z,57.34
2024-04-06T05:38:22.131Z,57.38
2024-04-06T05:40:53.313Z,57.36
2024-04-06T05:43:20.095Z,57.42
2024-04-06T05:45:46.906Z,57.56
2024-04-06T05:48:13.943Z,57.64
2024-04-06T05:50:46.669Z,57.79
2024-04-06T05:53:13.708Z,57.82
2024-04-06T05:55:40.647Z,58.04
2024-04-06T05:58:07.770Z,58.16
2024-04-06T06:00:34.579Z,58.31
2024-04-06T06:03:01.494Z,58.45
2024-04-06T06:05:28.350Z,58.71
2024-04-06T06:07:55.191Z,58.87
2024-04-06T06:10:22.247Z,59.09
2024-04-06T06:12:49.199Z,59.25
2024-04-06T06:15:16.016Z,59.40
2024-04-06T06:17:42.979Z,59.51
2024-04-06T06:20:10.140Z,59.60
2024-04-06T06:22:37.143Z,59.64
2024-04-06T06:25:04.604Z,59.76
2024-04-06T06:27:31.540Z,59.93
2024-04-06T06:30:00.936Z,59.88
2024-04-06T06:32:28.015Z,59.93
2024-04-06T06:34:55.119Z,59.90
2024-04-06T06:42:21.624Z,59.69
2024-04-06T06:44:48.524Z,59.69
2024-04-06T06:47:15.479Z,59.76
2024-04-06T06:49:42.303Z,59.72
2024-04-06T06:52:09.321Z,59.71
2024-04-06T06:54:36.479Z,59.76
2024-04-06T06:57:03.882Z,59.70
2024-04-06T07:02:00.472Z,59.56
2024-04-06T07:04:27.228Z,59.52
2024-04-06T07:09:25.067Z,59.41
2024-04-06T07:11:52.500Z,59.33
2024-04-06T07:14:19.277Z,59.30
2024-04-06T07:16:46.468Z,59.11
2024-04-06T07:19:13.371Z,59.09
2024-04-06T07:21:40.225Z,59.03
2024-04-06T07:24:07.338Z,58.93
2024-04-06T07:26:34.427Z,58.92
2024-04-06T07:29:01.129Z,58.83
2024-04-06T07:31:28.001Z,58.84
2024-04-06T07:33:55.037Z,58.74
2024-04-06T07:36:21.967Z,58.67
2024-04-06T07:41:18.800Z,58.65
2024-04-06T07:43:45.777Z,58.61
2024-04-06T07:46:12.777Z,58.55
2024-04-06T07:48:39.714Z,58.58
2024-04-06T07:51:06.507Z,58.61
2024-04-06T07:53:33.451Z,58.62
2024-04-06T07:56:00.391Z,58.64
2024-04-06T07:58:27.227Z,58.64
2024-04-06T08:00:54.117Z,58.58
2024-04-06T08:03:20.958Z,58.61
2024-04-06T08:05:54.136Z,58.65
2024-04-06T08:08:21.097Z,58.63
2024-04-06T08:10:47.889Z,58.70
2024-04-06T08:13:15.153Z,58.82
2024-04-06T08:15:42.279Z,58.94
2024-04-06T08:18:09.075Z,58.96
2024-04-06T08:20:36.068Z,59.00
2024-04-06T08:23:03.705Z,59.04
2024-04-06T08:25:30.529Z,59.05
2024-04-06T08:27:57.555Z,59.07
2024-04-06T08:30:24.467Z,58.99
2024-04-06T08:33:01.003Z,58.87
2024-04-06T08:35:29.105Z,58.66
2024-04-06T08:37:56.041Z,58.61
2024-04-06T08:40:22.984Z,58.45
2024-04-06T08:42:51.109Z,58.27
2024-04-06T08:45:20.907Z,58.15
2024-04-06T08:47:47.807Z,58.07
2024-04-06T08:50:15.022Z,57.96
2024-04-06T08:52:41.766Z,57.86
2024-04-06T08:55:10.064Z,57.74
2024-04-06T08:57:39.064Z,57.60
2024-04-06T09:00:12.411Z,57.62
2024-04-06T09:02:40.097Z,57.53
2024-04-06T09:05:07.974Z,57.51
2024-04-06T09:07:35.168Z,57.44
2024-04-06T09:10:02.044Z,57.43
2024-04-06T09:12:29.060Z,57.39
2024-04-06T09:14:55.964Z,57.35
2024-04-06T09:17:22.770Z,57.31
2024-04-06T09:19:49.835Z,57.30
2024-04-06T09:22:18.453Z,57.28
2024-04-06T09:24:46.200Z,57.29
2024-04-06T09:27:22.575Z,57.27
2024-04-06T09:29:49.525Z,57.24
2024-04-06T09:32:21.146Z,57.23
2024-04-06T09:34:53.073Z,57.16
2024-04-06T09:37:27.195Z,57.19
2024-04-06T09:39:57.352Z,57.15
2024-04-06T09:42:25.611Z,57.08
2024-04-06T09:44:55.290Z,56.93
2024-04-06T09:47:24.053Z,56.99
2024-04-06T09:49:51.648Z,56.82
2024-04-06T09:52:22.470Z,56.78
2024-04-06T09:54:49.568Z,56.77
2024-04-06T09:57:18.651Z,57.01
2024-04-06T09:59:46.658Z,57.01
2024-04-06T10:02:26.051Z,57.14
2024-04-06T10:04:57.389Z,57.21
2024-04-06T10:07:31.774Z,57.38
2024-04-06T10:10:07.196Z,57.44
2024-04-06T10:12:52.344Z,57.60
2024-04-06T10:15:21.603Z,57.66
2024-04-06T10:17:50.513Z,57.73
2024-04-06T10:20:19.084Z,57.84
2024-04-06T10:22:51.229Z,58.00
2024-04-06T10:25:27.118Z,58.31
2024-04-06T10:28:02.362Z,58.49
2024-04-06T10:30:29.827Z,58.71
2024-04-06T10:32:56.998Z,58.72
2024-04-06T10:35:24.893Z,58.86
2024-04-06T10:37:52.422Z,58.93
2024-04-06T10:40:34.836Z,59.23
2024-04-06T10:43:05.225Z,59.20
2024-04-06T10:45:33.786Z,59.34
2024-04-06T10:48:03.054Z,59.32
2024-04-06T10:50:30.234Z,59.38
2024-04-06T10:52:58.630Z,59.34
2024-04-06T10:55:26.945Z,59.17
2024-04-06T10:57:57.135Z,59.13
2024-04-06T11:00:27.035Z,59.08
2024-04-06T11:03:02.311Z,59.03
2024-04-06T11:05:30.976Z,58.94
2024-04-06T11:07:58.667Z,59.01
2024-04-06T11:10:25.758Z,59.03
2024-04-06T11:12:52.785Z,59.13
2024-04-06T11:15:23.974Z,59.08
2024-04-06T11:17:51.356Z,59.04
2024-04-06T11:20:18.683Z,59.13
2024-04-06T11:22:46.879Z,59.10
2024-04-06T11:25:15.558Z,59.03
2024-04-06T11:27:52.071Z,58.95
2024-04-06T11:30:21.238Z,58.92
2024-04-06T11:32:52.831Z,58.83
2024-04-06T11:35:20.273Z,58.79
2024-04-06T11:37:47.662Z,58.77
2024-04-06T11:40:15.618Z,58.71
2024-04-06T11:42:42.639Z,58.65
2024-04-06T11:45:09.697Z,58.65
2024-04-06T11:47:36.768Z,58.58
2024-04-06T11:50:04.088Z,58.69
2024-04-06T11:52:31.270Z,58.72
2024-04-06T11:54:58.209Z,58.64
2024-04-06T11:57:25.471Z,58.73
2024-04-06T11:59:52.841Z,58.91
2024-04-06T12:02:19.785Z,59.06
2024-04-06T12:04:46.521Z,59.19
2024-04-06T12:07:13.830Z,59.45
2024-04-06T12:09:40.741Z,59.45
2024-04-06T12:12:08.770Z,59.68
2024-04-06T12:14:35.606Z,59.74
2024-04-06T12:17:03.028Z,59.99
2024-04-06T12:19:30.000Z,60.09
2024-04-06T12:21:56.815Z,60.26
2024-04-06T12:24:26.036Z,60.19
2024-04-06T12:26:52.975Z,60.11
2024-04-06T12:29:19.856Z,60.24
2024-04-06T12:31:47.098Z,60.11
2024-04-06T12:34:13.854Z,59.98
2024-04-06T12:36:40.932Z,59.96
2024-04-06T12:39:10.315Z,59.77
2024-04-06T12:41:37.755Z,59.62
2024-04-06T12:44:05.251Z,59.50
2024-04-06T12:46:32.197Z,59.56
2024-04-06T12:48:59.113Z,59.44
2024-04-06T12:51:26.244Z,59.27
2024-04-06T12:53:54.907Z,59.28
2024-04-06T12:56:21.897Z,59.18
2024-04-06T12:58:48.727Z,59.11
2024-04-06T13:01:15.663Z,59.11
2024-04-06T13:03:52.590Z,59.06
2024-04-06T13:06:27.596Z,59.14
2024-04-06T13:08:55.035Z,59.19
2024-04-06T13:11:22.178Z,59.17
2024-04-06T13:13:50.424Z,59.04
2024-04-06T13:16:18.543Z,59.02
2024-04-06T13:18:46.923Z,59.05
2024-04-06T13:21:14.344Z,59.20
2024-04-06T13:23:41.706Z,59.17
2024-04-06T13:26:12.040Z,59.30
2024-04-06T13:28:39.094Z,59.33
2024-04-06T13:31:08.615Z,59.45
2024-04-06T13:33:36.579Z,59.38
2024-04-06T13:36:04.248Z,59.42
2024-04-06T13:38:31.497Z,59.54
2024-04-06T13:40:58.587Z,59.51
2024-04-06T13:43:26.254Z,59.54
2024-04-06T13:45:55.351Z,59.51
2024-04-06T13:48:22.397Z,59.45
2024-04-06T13:50:55.099Z,59.53
2024-04-06T13:53:22.561Z,59.35
2024-04-06T13:55:49.710Z,59.20
2024-04-06T13:58:18.377Z,59.18
2024-04-06T14:00:45.536Z,59.01
2024-04-06T14:03:12.693Z,58.98
2024-04-06T14:05:39.864Z,58.85
2024-04-06T14:08:07.096Z,58.87
2024-04-06T14:10:34.059Z,58.87
2024-04-06T14:13:02.467Z,58.87
2024-04-06T14:15:29.489Z,58.71
2024-04-06T14:17:56.754Z,58.66
2024-04-06T14:20:23.687Z,58.71
2024-04-06T14:22:50.866Z,58.66
2024-04-06T14:25:18.767Z,58.68
2024-04-06T14:27:45.996Z,58.66
2024-04-06T14:30:33.311Z,58.66
2024-04-06T14:33:00.514Z,58.63
2024-04-06T14:35:27.506Z,58.71
2024-04-06T14:37:54.384Z,58.71
2024-04-06T14:40:21.929Z,58.72
2024-04-06T14:42:50.155Z,58.72
2024-04-06T14:45:17.074Z,58.68
2024-04-06T14:47:44.346Z,58.72
2024-04-06T14:50:11.717Z,58.84
2024-04-06T14:52:40.362Z,58.78
2024-04-06T14:55:07.409Z,58.85
2024-04-06T14:57:34.294Z,58.91
2024-04-06T15:00:05.798Z,58.92
2024-04-06T15:02:32.822Z,59.07
2024-04-06T15:05:04.264Z,59.12
2024-04-06T15:07:37.078Z,59.21
2024-04-06T15:10:05.868Z,59.35
2024-04-06T15:12:33.624Z,59.45
2024-04-06T15:15:00.951Z,59.55
2024-04-06T15:17:28.833Z,59.72
2024-04-06T15:19:56.176Z,59.83
2024-04-06T15:22:23.081Z,59.87
2024-04-06T15:24:50.387Z,59.93
2024-04-06T15:27:17.205Z,60.01
2024-04-06T15:29:44.387Z,59.96
2024-04-06T15:32:12.163Z,59.81
2024-04-06T15:34:39.421Z,59.84
2024-04-06T15:37:09.018Z,59.62
2024-04-06T15:39:35.937Z,59.59
2024-04-06T15:42:03.691Z,59.57
2024-04-06T15:44:30.800Z,59.68
2024-04-06T15:46:57.852Z,59.54
2024-04-06T15:49:25.231Z,59.34
2024-04-06T15:51:52.311Z,59.30
2024-04-06T15:54:19.057Z,58.96
2024-04-06T15:56:45.957Z,58.50
2024-04-06T15:59:12.813Z,57.76
2024-04-06T16:01:41.236Z,57.50
2024-04-06T16:04:08.831Z,57.10
2024-04-06T16:06:36.888Z,56.80
2024-04-06T16:09:04.506Z,56.55
2024-04-06T16:11:31.773Z,56.53
2024-04-06T16:14:02.007Z,56.51
2024-04-06T16:16:29.241Z,56.31
2024-04-06T16:18:56.392Z,56.08
2024-04-06T16:21:23.905Z,56.25
2024-04-06T16:23:51.639Z,56.13
2024-04-06T16:26:18.898Z,56.10
2024-04-06T16:28:45.683Z,56.00
2024-04-06T16:31:13.208Z,56.04
2024-04-06T16:33:40.170Z,55.95
2024-04-06T16:36:07.715Z,55.94
2024-04-06T16:38:34.891Z,55.96
2024-04-06T16:41:02.357Z,55.88
2024-04-06T16:43:29.335Z,55.96
2024-04-06T16:45:56.879Z,55.90
2024-04-06T16:48:23.760Z,55.90
2024-04-06T16:50:50.775Z,55.90
2024-04-06T16:53:17.708Z,55.79
2024-04-06T16:55:44.614Z,55.89
2024-04-06T16:58:11.933Z,55.89
2024-04-06T17:00:39.106Z,55.93
2024-04-06T17:03:06.377Z,55.82
2024-04-06T17:05:33.665Z,55.93
2024-04-06T17:08:01.128Z,55.89
2024-04-06T17:10:28.633Z,55.99
2024-04-06T17:12:55.781Z,55.71
2024-04-06T17:15:23.085Z,55.84
2024-04-06T17:17:50.323Z,55.91
2024-04-06T17:20:22.188Z,55.81
2024-04-06T17:22:49.428Z,55.83
2024-04-06T17:25:16.779Z,55.94
2024-04-06T17:27:43.873Z,56.05
2024-04-06T17:30:11.403Z,55.94
2024-04-06T17:32:38.849Z,56.06
2024-04-06T17:35:06.191Z,56.03
2024-04-06T17:37:33.881Z,56.09
2024-04-06T17:40:01.047Z,56.01
2024-04-06T17:42:28.360Z,56.11
2024-04-06T17:44:55.669Z,56.05
2024-04-06T17:47:24.359Z,56.19
2024-04-06T17:49:51.620Z,56.11
2024-04-06T17:52:19.217Z,56.27
2024-04-06T17:54:47.597Z,56.20
2024-04-06T17:57:14.539Z,56.12
2024-04-06T17:59:41.533Z,56.22
2024-04-06T18:02:12.206Z,56.17
2024-04-06T18:04:39.534Z,56.12
2024-04-06T18:07:06.724Z,56.19
2024-04-06T18:09:34.319Z,56.14
2024-04-06T18:12:01.922Z,56.22
2024-04-06T18:14:28.778Z,56.30
2024-04-06T18:16:56.099Z,56.29
2024-04-06T18:19:23.324Z,56.17
2024-04-06T18:21:50.211Z,56.26
2024-04-06T18:24:17.418Z,56.25
2024-04-06T18:26:44.376Z,56.25
2024-04-06T18:29:11.716Z,56.29
2024-04-06T18:31:38.897Z,56.21
2024-04-06T18:34:06.365Z,56.29
2024-04-06T18:36:33.723Z,56.32
2024-04-06T18:39:01.703Z,56.46
2024-04-06T18:41:28.968Z,56.56
2024-04-06T18:43:55.736Z,56.47
2024-04-06T18:46:22.850Z,56.48
2024-04-06T18:48:49.829Z,56.53
2024-04-06T18:51:17.294Z,56.62
2024-04-06T18:53:44.548Z,56.58
2024-04-06T18:56:11.900Z,56.65
2024-04-06T18:58:38.724Z,56.79
2024-04-06T19:01:10.286Z,56.75
2024-04-06T19:03:42.673Z,56.87
2024-04-06T19:06:09.727Z,56.82
2024-04-06T19:08:36.916Z,56.85
2024-04-06T19:11:04.169Z,56.96
2024-04-06T19:13:30.930Z,57.00
2024-04-06T19:15:57.823Z,56.99
2024-04-06T19:18:24.908Z,57.01
2024-04-06T19:20:52.948Z,57.10
2024-04-06T19:23:19.867Z,57.17
2024-04-06T19:25:46.707Z,57.21
2024-04-06T19:28:13.374Z,57.25
2024-04-06T19:30:40.687Z,57.27
2024-04-06T19:33:08.162Z,57.36
2024-04-06T19:35:34.976Z,57.42
2024-04-06T19:38:02.073Z,57.47
2024-04-06T19:40:29.423Z,57.58
2024-04-06T19:42:56.450Z,57.55
2024-04-06T19:45:23.388Z,57.75
2024-04-06T19:47:50.444Z,57.83
2024-04-06T19:50:17.300Z,58.00
2024-04-06T19:52:44.507Z,58.12
2024-04-06T19:55:15.418Z,58.22
2024-04-06T19:57:48.601Z,58.25
2024-04-06T20:00:16.702Z,58.35
2024-04-06T20:02:43.713Z,58.30
2024-04-06T20:05:11.908Z,58.40
2024-04-06T20:07:39.013Z,58.40
2024-04-06T20:10:06.538Z,58.35
2024-04-06T20:12:33.590Z,58.27
2024-04-06T20:15:00.753Z,58.21
2024-04-06T20:17:28.538Z,58.20
2024-04-06T20:19:56.061Z,58.12
2024-04-06T20:22:41.649Z,58.16
2024-04-06T20:25:27.439Z,58.17
2024-04-06T20:27:54.787Z,58.18
2024-04-06T20:30:21.681Z,58.15
2024-04-06T20:32:48.883Z,58.14
2024-04-06T20:35:16.048Z,58.15
2024-04-06T20:37:43.208Z,58.21
2024-04-06T20:40:12.879Z,58.26
2024-04-06T20:42:40.326Z,58.27
2024-04-06T20:45:08.890Z,58.37
2024-04-06T20:47:36.097Z,58.34
2024-04-06T20:50:03.601Z,58.41
2024-04-06T20:52:30.653Z,58.46
2024-04-06T20:54:59.114Z,58.48
2024-04-06T20:57:25.930Z,58.50
2024-04-06T20:59:53.064Z,58.51
2024-04-06T21:02:20.287Z,58.60
2024-04-06T21:04:47.245Z,58.68
2024-04-06T21:07:14.079Z,58.70
2024-04-06T21:09:42.021Z,58.76
2024-04-06T21:12:09.563Z,58.80
2024-04-06T21:14:36.582Z,58.79
2024-04-06T21:17:04.144Z,58.85
2024-04-06T21:19:31.239Z,58.93
2024-04-06T21:21:58.293Z,59.01
2024-04-06T21:24:25.208Z,59.17
2024-04-06T21:26:52.354Z,59.28
2024-04-06T21:29:19.627Z,59.42
2024-04-06T21:31:47.595Z,59.47
2024-04-06T21:34:14.403Z,59.50
2024-04-06T21:36:42.014Z,59.61
2024-04-06T21:39:09.030Z,59.59
2024-04-06T21:41:37.926Z,59.62
2024-04-06T21:44:05.051Z,59.52
2024-04-06T21:46:32.282Z,59.52
2024-04-06T21:48:59.246Z,59.46
2024-04-06T21:51:26.478Z,59.37
2024-04-06T21:53:53.175Z,59.32
2024-04-06T21:56:21.299Z,59.25
2024-04-06T21:58:48.251Z,59.14
2024-04-06T22:01:15.200Z,59.11
2024-04-06T22:03:42.073Z,59.14
2024-04-06T22:06:09.198Z,59.15
2024-04-06T22:08:35.894Z,59.11
2024-04-06T22:11:04.227Z,59.19
2024-04-06T22:13:31.714Z,59.15
2024-04-06T22:15:58.856Z,59.29
2024-04-06T22:18:25.907Z,59.22
2024-04-06T22:20:52.919Z,59.35
2024-04-06T22:23:19.847Z,59.37
2024-04-06T22:25:48.032Z,59.40
2024-04-06T22:28:15.555Z,59.42
2024-04-06T22:30:43.066Z,59.45
2024-04-06T22:33:10.646Z,59.41
2024-04-06T22:35:37.645Z,59.51
2024-04-06T22:38:05.107Z,59.51
2024-04-06T22:40:32.678Z,59.55
2024-04-06T22:42:59.982Z,59.62
2024-04-06T22:45:27.185Z,59.78
2024-04-06T22:47:54.152Z,59.88
2024-04-06T22:50:21.237Z,59.93
2024-04-06T22:52:48.244Z,60.02
2024-04-06T22:55:15.642Z,59.95
2024-04-06T22:57:42.679Z,59.97
2024-04-06T23:00:12.372Z,59.91
2024-04-06T23:02:39.430Z,59.81
2024-04-06T23:05:06.887Z,59.71
2024-04-06T23:07:36.368Z,59.58
2024-04-06T23:10:04.060Z,59.43
2024-04-06T23:12:31.436Z,59.28
2024-04-06T23:14:58.622Z,59.17
2024-04-06T23:17:25.657Z,59.07
2024-04-06T23:19:52.792Z,59.01
2024-04-06T23:22:20.499Z,58.94
2024-04-06T23:24:48.257Z,58.97
2024-04-06T23:27:15.279Z,58.87
2024-04-06T23:29:44.188Z,58.85
2024-04-06T23:32:11.444Z,58.81
2024-04-06T23:34:38.637Z,58.79
2024-04-06T23:37:05.752Z,58.85
2024-04-06T23:39:36.997Z,58.91
2024-04-06T23:42:06.014Z,58.89
2024-04-06T23:44:32.830Z,58.99
2024-04-06T23:46:59.765Z,59.10
2024-04-06T23:49:26.854Z,59.14
2024-04-06T23:51:54.824Z,59.18
2024-04-06T23:54:21.800Z,59.26
2024-04-06T23:56:48.826Z,59.33
2024-04-06T23:59:15.732Z,59.39
